sensor_id;sensor_type;location;lat;lon;timestamp;P1;durP1;ratioP1;P2;durP2;ratioP2
40433;SDS011;26146;51.114;5.654;2023-04-24T00:00:56;10.80;;;4.30;;
40433;SDS011;26146;51.114;5.654;2023-04-24T00:04:59;20.90;;;4.60;;
40433;SDS011;26146;51.114;5.654;2023-04-24T00:09:03;11.87;;;4.97;;
40433;SDS011;26146;51.114;5.654;2023-04-24T00:13:04;12.27;;;4.87;;
40433;SDS011;26146;51.114;5.654;2023-04-24T00:17:05;13.40;;;5.10;;
40433;SDS011;26146;51.114;5.654;2023-04-24T00:21:06;10.70;;;4.93;;
40433;SDS011;26146;51.114;5.654;2023-04-24T00:25:07;13.83;;;5.40;;
40433;SDS011;26146;51.114;5.654;2023-04-24T00:29:09;12.43;;;5.47;;
40433;SDS011;26146;51.114;5.654;2023-04-24T00:33:10;13.23;;;5.17;;
40433;SDS011;26146;51.114;5.654;2023-04-24T00:37:11;13.03;;;5.50;;
40433;SDS011;26146;51.114;5.654;2023-04-24T00:41:12;13.13;;;5.53;;
40433;SDS011;26146;51.114;5.654;2023-04-24T00:45:13;12.93;;;5.57;;
40433;SDS011;26146;51.114;5.654;2023-04-24T00:49:14;15.43;;;6.40;;
40433;SDS011;26146;51.114;5.654;2023-04-24T00:53:15;14.67;;;6.50;;
40433;SDS011;26146;51.114;5.654;2023-04-24T00:57:16;15.67;;;6.40;;
40433;SDS011;26146;51.114;5.654;2023-04-24T01:01:21;14.07;;;6.53;;
40433;SDS011;26146;51.114;5.654;2023-04-24T01:05:22;14.33;;;6.90;;
40433;SDS011;26146;51.114;5.654;2023-04-24T01:09:23;18.67;;;7.17;;
40433;SDS011;26146;51.114;5.654;2023-04-24T01:13:25;19.73;;;7.50;;
40433;SDS011;26146;51.114;5.654;2023-04-24T01:17:26;18.77;;;7.67;;
40433;SDS011;26146;51.114;5.654;2023-04-24T01:21:27;18.40;;;8.03;;
40433;SDS011;26146;51.114;5.654;2023-04-24T01:25:30;16.77;;;7.70;;
40433;SDS011;26146;51.114;5.654;2023-04-24T01:29:32;18.83;;;7.80;;
40433;SDS011;26146;51.114;5.654;2023-04-24T01:33:33;18.50;;;8.47;;
40433;SDS011;26146;51.114;5.654;2023-04-24T01:37:34;19.13;;;8.50;;
40433;SDS011;26146;51.114;5.654;2023-04-24T01:41:37;18.53;;;8.33;;
40433;SDS011;26146;51.114;5.654;2023-04-24T01:45:38;19.17;;;8.60;;
40433;SDS011;26146;51.114;5.654;2023-04-24T01:49:39;18.97;;;8.27;;
40433;SDS011;26146;51.114;5.654;2023-04-24T01:53:40;21.03;;;9.17;;
40433;SDS011;26146;51.114;5.654;2023-04-24T01:57:41;19.90;;;8.67;;
40433;SDS011;26146;51.114;5.654;2023-04-24T02:01:42;17.73;;;8.70;;
40433;SDS011;26146;51.114;5.654;2023-04-24T02:05:44;19.17;;;8.77;;
40433;SDS011;26146;51.114;5.654;2023-04-24T02:09:45;17.67;;;8.07;;
40433;SDS011;26146;51.114;5.654;2023-04-24T02:13:46;19.97;;;8.57;;
40433;SDS011;26146;51.114;5.654;2023-04-24T02:17:47;17.03;;;8.10;;
40433;SDS011;26146;51.114;5.654;2023-04-24T02:21:50;15.57;;;7.60;;
40433;SDS011;26146;51.114;5.654;2023-04-24T02:25:51;20.33;;;8.10;;
40433;SDS011;26146;51.114;5.654;2023-04-24T02:29:53;19.40;;;8.40;;
40433;SDS011;26146;51.114;5.654;2023-04-24T02:33:54;18.47;;;8.20;;
40433;SDS011;26146;51.114;5.654;2023-04-24T02:37:55;18.30;;;7.73;;
40433;SDS011;26146;51.114;5.654;2023-04-24T02:41:56;16.07;;;7.60;;
40433;SDS011;26146;51.114;5.654;2023-04-24T02:45:57;18.07;;;7.73;;
40433;SDS011;26146;51.114;5.654;2023-04-24T02:49:58;17.97;;;7.87;;
40433;SDS011;26146;51.114;5.654;2023-04-24T02:53:59;16.90;;;8.20;;
40433;SDS011;26146;51.114;5.654;2023-04-24T02:58:00;15.97;;;7.83;;
40433;SDS011;26146;51.114;5.654;2023-04-24T03:02:01;14.77;;;7.80;;
40433;SDS011;26146;51.114;5.654;2023-04-24T03:06:03;18.37;;;7.97;;
40433;SDS011;26146;51.114;5.654;2023-04-24T03:10:06;14.60;;;7.60;;
40433;SDS011;26146;51.114;5.654;2023-04-24T03:14:07;14.27;;;7.27;;
40433;SDS011;26146;51.114;5.654;2023-04-24T03:18:09;14.77;;;7.20;;
40433;SDS011;26146;51.114;5.654;2023-04-24T03:22:10;14.60;;;7.10;;
40433;SDS011;26146;51.114;5.654;2023-04-24T03:26:11;14.03;;;6.80;;
40433;SDS011;26146;51.114;5.654;2023-04-24T03:30:12;12.70;;;6.43;;
40433;SDS011;26146;51.114;5.654;2023-04-24T03:34:13;13.67;;;6.80;;
40433;SDS011;26146;51.114;5.654;2023-04-24T03:38:14;13.87;;;7.00;;
40433;SDS011;26146;51.114;5.654;2023-04-24T03:42:15;15.97;;;7.37;;
40433;SDS011;26146;51.114;5.654;2023-04-24T03:46:16;14.93;;;7.53;;
40433;SDS011;26146;51.114;5.654;2023-04-24T03:50:17;15.07;;;7.43;;
40433;SDS011;26146;51.114;5.654;2023-04-24T03:54:19;12.73;;;6.87;;
40433;SDS011;26146;51.114;5.654;2023-04-24T03:58:20;14.80;;;7.70;;
40433;SDS011;26146;51.114;5.654;2023-04-24T04:02:21;16.97;;;8.23;;
40433;SDS011;26146;51.114;5.654;2023-04-24T04:06:22;16.40;;;8.23;;
40433;SDS011;26146;51.114;5.654;2023-04-24T04:10:23;17.33;;;8.03;;
40433;SDS011;26146;51.114;5.654;2023-04-24T04:14:24;15.77;;;7.63;;
40433;SDS011;26146;51.114;5.654;2023-04-24T04:18:25;13.97;;;7.70;;
40433;SDS011;26146;51.114;5.654;2023-04-24T04:22:26;14.57;;;7.63;;
40433;SDS011;26146;51.114;5.654;2023-04-24T04:26:27;15.03;;;7.57;;
40433;SDS011;26146;51.114;5.654;2023-04-24T04:30:28;15.63;;;7.60;;
40433;SDS011;26146;51.114;5.654;2023-04-24T04:34:32;15.67;;;7.63;;
40433;SDS011;26146;51.114;5.654;2023-04-24T04:38:33;14.80;;;7.40;;
40433;SDS011;26146;51.114;5.654;2023-04-24T04:42:35;16.53;;;7.37;;
40433;SDS011;26146;51.114;5.654;2023-04-24T04:46:36;16.27;;;7.37;;
40433;SDS011;26146;51.114;5.654;2023-04-24T04:50:38;13.37;;;7.13;;
40433;SDS011;26146;51.114;5.654;2023-04-24T04:54:39;14.43;;;7.10;;
40433;SDS011;26146;51.114;5.654;2023-04-24T04:58:40;14.07;;;6.37;;
40433;SDS011;26146;51.114;5.654;2023-04-24T05:02:41;15.10;;;6.37;;
40433;SDS011;26146;51.114;5.654;2023-04-24T05:06:43;12.13;;;6.20;;
40433;SDS011;26146;51.114;5.654;2023-04-24T05:10:44;12.23;;;5.70;;
40433;SDS011;26146;51.114;5.654;2023-04-24T05:14:45;13.70;;;5.63;;
40433;SDS011;26146;51.114;5.654;2023-04-24T05:18:46;10.93;;;5.60;;
40433;SDS011;26146;51.114;5.654;2023-04-24T05:22:47;12.43;;;5.13;;
40433;SDS011;26146;51.114;5.654;2023-04-24T05:26:48;10.87;;;4.80;;
40433;SDS011;26146;51.114;5.654;2023-04-24T05:30:49;10.23;;;4.80;;
40433;SDS011;26146;51.114;5.654;2023-04-24T05:34:50;9.57;;;4.00;;
40433;SDS011;26146;51.114;5.654;2023-04-24T05:38:51;8.80;;;3.60;;
40433;SDS011;26146;51.114;5.654;2023-04-24T05:42:52;8.43;;;3.80;;
40433;SDS011;26146;51.114;5.654;2023-04-24T05:46:53;8.83;;;3.40;;
40433;SDS011;26146;51.114;5.654;2023-04-24T05:50:55;8.90;;;3.40;;
40433;SDS011;26146;51.114;5.654;2023-04-24T05:54:56;10.37;;;3.60;;
40433;SDS011;26146;51.114;5.654;2023-04-24T05:58:58;9.10;;;3.57;;
40433;SDS011;26146;51.114;5.654;2023-04-24T06:02:59;7.77;;;3.20;;
40433;SDS011;26146;51.114;5.654;2023-04-24T06:07:00;7.77;;;3.20;;
40433;SDS011;26146;51.114;5.654;2023-04-24T06:11:01;6.27;;;2.70;;
40433;SDS011;26146;51.114;5.654;2023-04-24T06:15:03;7.13;;;2.90;;
40433;SDS011;26146;51.114;5.654;2023-04-24T06:19:04;7.07;;;2.60;;
40433;SDS011;26146;51.114;5.654;2023-04-24T06:23:05;8.20;;;2.90;;
40433;SDS011;26146;51.114;5.654;2023-04-24T06:27:06;7.00;;;2.20;;
40433;SDS011;26146;51.114;5.654;2023-04-24T06:31:07;6.73;;;1.90;;
40433;SDS011;26146;51.114;5.654;2023-04-24T06:35:08;4.73;;;1.20;;
40433;SDS011;26146;51.114;5.654;2023-04-24T06:39:11;3.77;;;0.90;;
40433;SDS011;26146;51.114;5.654;2023-04-24T06:43:12;5.07;;;1.50;;
40433;SDS011;26146;51.114;5.654;2023-04-24T06:47:15;5.40;;;1.80;;
40433;SDS011;26146;51.114;5.654;2023-04-24T06:51:16;8.00;;;2.80;;
40433;SDS011;26146;51.114;5.654;2023-04-24T06:55:18;9.10;;;4.07;;
40433;SDS011;26146;51.114;5.654;2023-04-24T06:59:19;12.20;;;5.03;;
40433;SDS011;26146;51.114;5.654;2023-04-24T07:03:20;13.63;;;6.20;;
40433;SDS011;26146;51.114;5.654;2023-04-24T07:07:21;13.43;;;6.00;;
40433;SDS011;26146;51.114;5.654;2023-04-24T07:11:23;14.37;;;5.87;;
40433;SDS011;26146;51.114;5.654;2023-04-24T07:15:25;12.03;;;5.60;;
40433;SDS011;26146;51.114;5.654;2023-04-24T07:19:26;13.67;;;5.07;;
40433;SDS011;26146;51.114;5.654;2023-04-24T07:23:27;9.83;;;4.53;;
40433;SDS011;26146;51.114;5.654;2023-04-24T07:27:27;10.00;;;4.23;;
40433;SDS011;26146;51.114;5.654;2023-04-24T07:31:28;10.37;;;4.70;;
40433;SDS011;26146;51.114;5.654;2023-04-24T07:35:30;12.43;;;4.63;;
40433;SDS011;26146;51.114;5.654;2023-04-24T07:39:31;11.90;;;5.60;;
40433;SDS011;26146;51.114;5.654;2023-04-24T07:43:32;13.90;;;5.73;;
40433;SDS011;26146;51.114;5.654;2023-04-24T07:47:33;13.23;;;5.83;;
40433;SDS011;26146;51.114;5.654;2023-04-24T07:51:34;15.07;;;5.77;;
40433;SDS011;26146;51.114;5.654;2023-04-24T07:55:38;13.00;;;5.43;;
40433;SDS011;26146;51.114;5.654;2023-04-24T07:59:39;15.77;;;5.57;;
40433;SDS011;26146;51.114;5.654;2023-04-24T08:03:40;13.90;;;6.13;;
40433;SDS011;26146;51.114;5.654;2023-04-24T08:07:41;12.47;;;5.37;;
40433;SDS011;26146;51.114;5.654;2023-04-24T08:11:46;13.13;;;6.30;;
40433;SDS011;26146;51.114;5.654;2023-04-24T08:15:47;13.77;;;5.63;;
40433;SDS011;26146;51.114;5.654;2023-04-24T08:19:48;12.93;;;5.60;;
40433;SDS011;26146;51.114;5.654;2023-04-24T08:23:51;16.57;;;5.43;;
40433;SDS011;26146;51.114;5.654;2023-04-24T08:27:52;14.23;;;5.60;;
40433;SDS011;26146;51.114;5.654;2023-04-24T08:31:53;13.80;;;4.87;;
40433;SDS011;26146;51.114;5.654;2023-04-24T08:35:55;15.70;;;5.13;;
40433;SDS011;26146;51.114;5.654;2023-04-24T08:39:56;13.77;;;4.73;;
40433;SDS011;26146;51.114;5.654;2023-04-24T08:43:57;14.93;;;4.53;;
40433;SDS011;26146;51.114;5.654;2023-04-24T08:47:59;11.20;;;4.43;;
40433;SDS011;26146;51.114;5.654;2023-04-24T08:52:00;14.50;;;4.30;;
40433;SDS011;26146;51.114;5.654;2023-04-24T08:56:02;12.53;;;4.20;;
40433;SDS011;26146;51.114;5.654;2023-04-24T09:00:04;12.70;;;4.20;;
40433;SDS011;26146;51.114;5.654;2023-04-24T09:04:07;10.37;;;3.60;;
40433;SDS011;26146;51.114;5.654;2023-04-24T09:08:10;10.97;;;3.60;;
40433;SDS011;26146;51.114;5.654;2023-04-24T09:12:14;11.83;;;4.10;;
40433;SDS011;26146;51.114;5.654;2023-04-24T09:16:15;12.23;;;4.10;;
40433;SDS011;26146;51.114;5.654;2023-04-24T09:20:16;15.70;;;4.20;;
40433;SDS011;26146;51.114;5.654;2023-04-24T09:24:18;13.10;;;4.17;;
40433;SDS011;26146;51.114;5.654;2023-04-24T09:28:29;12.07;;;3.20;;
40433;SDS011;26146;51.114;5.654;2023-04-24T09:32:37;11.43;;;3.00;;
40433;SDS011;26146;51.114;5.654;2023-04-24T09:36:39;10.80;;;2.87;;
40433;SDS011;26146;51.114;5.654;2023-04-24T09:40:42;9.27;;;2.30;;
40433;SDS011;26146;51.114;5.654;2023-04-24T09:44:43;11.10;;;1.90;;
40433;SDS011;26146;51.114;5.654;2023-04-24T09:48:45;9.23;;;2.13;;
40433;SDS011;26146;51.114;5.654;2023-04-24T09:52:47;9.87;;;2.10;;
40433;SDS011;26146;51.114;5.654;2023-04-24T09:56:57;9.97;;;2.00;;
40433;SDS011;26146;51.114;5.654;2023-04-24T10:01:00;11.30;;;2.20;;
40433;SDS011;26146;51.114;5.654;2023-04-24T10:05:01;11.60;;;2.20;;
40433;SDS011;26146;51.114;5.654;2023-04-24T10:09:02;13.57;;;2.20;;
40433;SDS011;26146;51.114;5.654;2023-04-24T10:13:04;13.43;;;2.30;;
40433;SDS011;26146;51.114;5.654;2023-04-24T10:17:05;10.10;;;2.30;;
40433;SDS011;26146;51.114;5.654;2023-04-24T10:21:07;9.90;;;2.20;;
40433;SDS011;26146;51.114;5.654;2023-04-24T10:25:09;13.50;;;2.50;;
40433;SDS011;26146;51.114;5.654;2023-04-24T10:29:12;10.77;;;2.40;;
40433;SDS011;26146;51.114;5.654;2023-04-24T10:33:15;12.63;;;2.83;;
40433;SDS011;26146;51.114;5.654;2023-04-24T10:37:17;11.77;;;2.50;;
40433;SDS011;26146;51.114;5.654;2023-04-24T10:41:19;10.95;;;2.47;;
40433;SDS011;26146;51.114;5.654;2023-04-24T10:45:23;12.47;;;2.97;;
40433;SDS011;26146;51.114;5.654;2023-04-24T10:49:29;15.15;;;3.10;;
40433;SDS011;26146;51.114;5.654;2023-04-24T10:53:31;11.50;;;3.00;;
40433;SDS011;26146;51.114;5.654;2023-04-24T10:57:35;12.10;;;2.73;;
40433;SDS011;26146;51.114;5.654;2023-04-24T11:01:37;11.17;;;3.03;;
40433;SDS011;26146;51.114;5.654;2023-04-24T11:05:48;8.80;;;2.00;;
40433;SDS011;26146;51.114;5.654;2023-04-24T11:09:58;8.63;;;1.50;;
40433;SDS011;26146;51.114;5.654;2023-04-24T11:14:01;8.40;;;1.60;;
40433;SDS011;26146;51.114;5.654;2023-04-24T11:18:04;8.73;;;1.80;;
40433;SDS011;26146;51.114;5.654;2023-04-24T11:22:14;7.17;;;1.50;;
40433;SDS011;26146;51.114;5.654;2023-04-24T11:26:18;9.27;;;1.67;;
40433;SDS011;26146;51.114;5.654;2023-04-24T11:30:23;11.03;;;1.63;;
40433;SDS011;26146;51.114;5.654;2023-04-24T11:34:29;8.90;;;1.70;;
40433;SDS011;26146;51.114;5.654;2023-04-24T11:38:32;9.17;;;1.60;;
40433;SDS011;26146;51.114;5.654;2023-04-24T11:42:34;7.73;;;1.80;;
40433;SDS011;26146;51.114;5.654;2023-04-24T11:46:36;7.80;;;1.60;;
40433;SDS011;26146;51.114;5.654;2023-04-24T11:50:40;7.53;;;1.50;;
40433;SDS011;26146;51.114;5.654;2023-04-24T11:54:50;9.60;;;1.70;;
40433;SDS011;26146;51.114;5.654;2023-04-24T11:58:51;8.67;;;1.80;;
40433;SDS011;26146;51.114;5.654;2023-04-24T12:03:10;14.20;;;2.50;;
40433;SDS011;26146;51.114;5.654;2023-04-24T12:07:11;8.40;;;1.90;;
40433;SDS011;26146;51.114;5.654;2023-04-24T12:11:14;8.90;;;1.83;;
40433;SDS011;26146;51.114;5.654;2023-04-24T12:15:19;8.23;;;2.30;;
40433;SDS011;26146;51.114;5.654;2023-04-24T12:19:21;10.17;;;2.17;;
40433;SDS011;26146;51.114;5.654;2023-04-24T12:23:35;8.10;;;1.90;;
40433;SDS011;26146;51.114;5.654;2023-04-24T12:27:36;7.13;;;1.80;;
40433;SDS011;26146;51.114;5.654;2023-04-24T12:31:37;7.78;;;1.80;;
40433;SDS011;26146;51.114;5.654;2023-04-24T12:35:39;8.65;;;1.80;;
40433;SDS011;26146;51.114;5.654;2023-04-24T12:39:44;12.15;;;1.83;;
40433;SDS011;26146;51.114;5.654;2023-04-24T12:44:10;7.57;;;1.92;;
40433;SDS011;26146;51.114;5.654;2023-04-24T12:48:12;8.80;;;1.75;;
40433;SDS011;26146;51.114;5.654;2023-04-24T12:52:16;7.78;;;2.10;;
40433;SDS011;26146;51.114;5.654;2023-04-24T12:56:17;8.25;;;2.05;;
40433;SDS011;26146;51.114;5.654;2023-04-24T13:00:18;7.80;;;2.00;;
40433;SDS011;26146;51.114;5.654;2023-04-24T13:04:19;7.30;;;2.07;;
40433;SDS011;26146;51.114;5.654;2023-04-24T13:08:20;7.85;;;1.80;;
40433;SDS011;26146;51.114;5.654;2023-04-24T13:12:21;8.10;;;1.60;;
40433;SDS011;26146;51.114;5.654;2023-04-24T13:16:24;7.60;;;1.80;;
40433;SDS011;26146;51.114;5.654;2023-04-24T13:20:25;8.85;;;1.80;;
40433;SDS011;26146;51.114;5.654;2023-04-24T13:24:26;7.18;;;1.70;;
40433;SDS011;26146;51.114;5.654;2023-04-24T13:28:30;6.20;;;1.40;;
40433;SDS011;26146;51.114;5.654;2023-04-24T13:32:32;4.40;;;1.13;;
40433;SDS011;26146;51.114;5.654;2023-04-24T13:36:33;5.45;;;1.30;;
40433;SDS011;26146;51.114;5.654;2023-04-24T13:40:35;7.13;;;1.48;;
40433;SDS011;26146;51.114;5.654;2023-04-24T13:44:37;5.53;;;1.40;;
40433;SDS011;26146;51.114;5.654;2023-04-24T13:48:38;4.53;;;1.30;;
40433;SDS011;26146;51.114;5.654;2023-04-24T13:52:39;5.38;;;1.30;;
40433;SDS011;26146;51.114;5.654;2023-04-24T13:56:41;6.68;;;1.35;;
40433;SDS011;26146;51.114;5.654;2023-04-24T14:00:42;5.97;;;1.30;;
40433;SDS011;26146;51.114;5.654;2023-04-24T14:04:43;7.22;;;1.52;;
40433;SDS011;26146;51.114;5.654;2023-04-24T14:08:45;6.72;;;1.40;;
40433;SDS011;26146;51.114;5.654;2023-04-24T14:12:46;6.10;;;1.73;;
40433;SDS011;26146;51.114;5.654;2023-04-24T14:16:48;6.35;;;1.45;;
40433;SDS011;26146;51.114;5.654;2023-04-24T14:20:50;5.93;;;1.42;;
40433;SDS011;26146;51.114;5.654;2023-04-24T14:24:51;8.85;;;1.90;;
40433;SDS011;26146;51.114;5.654;2023-04-24T14:28:52;6.50;;;1.60;;
40433;SDS011;26146;51.114;5.654;2023-04-24T14:32:54;7.57;;;1.55;;
40433;SDS011;26146;51.114;5.654;2023-04-24T14:36:55;5.57;;;1.70;;
40433;SDS011;26146;51.114;5.654;2023-04-24T14:40:56;6.97;;;1.67;;
40433;SDS011;26146;51.114;5.654;2023-04-24T14:44:57;6.33;;;1.30;;
40433;SDS011;26146;51.114;5.654;2023-04-24T14:48:59;6.32;;;1.40;;
40433;SDS011;26146;51.114;5.654;2023-04-24T14:53:00;5.68;;;1.50;;
40433;SDS011;26146;51.114;5.654;2023-04-24T14:57:02;5.80;;;1.45;;
40433;SDS011;26146;51.114;5.654;2023-04-24T15:01:03;7.85;;;1.50;;
40433;SDS011;26146;51.114;5.654;2023-04-24T15:05:05;6.50;;;1.40;;
40433;SDS011;26146;51.114;5.654;2023-04-24T15:09:07;8.05;;;2.00;;
40433;SDS011;26146;51.114;5.654;2023-04-24T15:13:08;8.07;;;1.50;;
40433;SDS011;26146;51.114;5.654;2023-04-24T15:17:10;5.47;;;1.58;;
40433;SDS011;26146;51.114;5.654;2023-04-24T15:21:11;5.88;;;1.67;;
40433;SDS011;26146;51.114;5.654;2023-04-24T15:25:13;7.55;;;1.63;;
40433;SDS011;26146;51.114;5.654;2023-04-24T15:29:14;5.68;;;1.50;;
40433;SDS011;26146;51.114;5.654;2023-04-24T15:33:15;5.63;;;1.40;;
40433;SDS011;26146;51.114;5.654;2023-04-24T15:37:16;7.43;;;1.30;;
40433;SDS011;26146;51.114;5.654;2023-04-24T15:41:17;5.93;;;1.35;;
40433;SDS011;26146;51.114;5.654;2023-04-24T15:45:18;7.57;;;1.50;;
40433;SDS011;26146;51.114;5.654;2023-04-24T15:49:19;7.35;;;1.50;;
40433;SDS011;26146;51.114;5.654;2023-04-24T15:53:21;6.35;;;1.60;;
40433;SDS011;26146;51.114;5.654;2023-04-24T15:57:22;6.60;;;1.58;;
40433;SDS011;26146;51.114;5.654;2023-04-24T16:01:23;6.43;;;1.40;;
40433;SDS011;26146;51.114;5.654;2023-04-24T16:05:24;7.22;;;1.60;;
40433;SDS011;26146;51.114;5.654;2023-04-24T16:09:25;7.53;;;1.50;;
40433;SDS011;26146;51.114;5.654;2023-04-24T16:13:26;5.22;;;1.60;;
40433;SDS011;26146;51.114;5.654;2023-04-24T16:17:28;6.40;;;1.70;;
40433;SDS011;26146;51.114;5.654;2023-04-24T16:21:29;6.38;;;2.00;;
40433;SDS011;26146;51.114;5.654;2023-04-24T16:25:31;10.07;;;2.47;;
40433;SDS011;26146;51.114;5.654;2023-04-24T16:29:32;7.30;;;1.70;;
40433;SDS011;26146;51.114;5.654;2023-04-24T16:33:33;7.73;;;2.10;;
40433;SDS011;26146;51.114;5.654;2023-04-24T16:37:34;8.50;;;1.80;;
40433;SDS011;26146;51.114;5.654;2023-04-24T16:41:35;7.20;;;1.63;;
40433;SDS011;26146;51.114;5.654;2023-04-24T16:45:36;6.97;;;1.50;;
40433;SDS011;26146;51.114;5.654;2023-04-24T16:49:37;6.07;;;1.60;;
40433;SDS011;26146;51.114;5.654;2023-04-24T16:53:38;6.43;;;1.63;;
40433;SDS011;26146;51.114;5.654;2023-04-24T16:57:39;8.93;;;1.93;;
40433;SDS011;26146;51.114;5.654;2023-04-24T17:01:40;8.37;;;1.70;;
40433;SDS011;26146;51.114;5.654;2023-04-24T17:05:42;8.30;;;1.90;;
40433;SDS011;26146;51.114;5.654;2023-04-24T17:09:43;9.97;;;2.23;;
40433;SDS011;26146;51.114;5.654;2023-04-24T17:13:44;7.33;;;1.97;;
40433;SDS011;26146;51.114;5.654;2023-04-24T17:17:45;7.50;;;1.70;;
40433;SDS011;26146;51.114;5.654;2023-04-24T17:21:46;8.80;;;2.10;;
40433;SDS011;26146;51.114;5.654;2023-04-24T17:25:47;10.67;;;2.13;;
40433;SDS011;26146;51.114;5.654;2023-04-24T17:29:48;9.93;;;2.20;;
40433;SDS011;26146;51.114;5.654;2023-04-24T17:33:50;6.97;;;2.20;;
40433;SDS011;26146;51.114;5.654;2023-04-24T17:37:51;6.97;;;2.23;;
40433;SDS011;26146;51.114;5.654;2023-04-24T17:41:52;8.53;;;2.13;;
40433;SDS011;26146;51.114;5.654;2023-04-24T17:45:53;6.47;;;1.97;;
40433;SDS011;26146;51.114;5.654;2023-04-24T17:49:55;7.17;;;1.83;;
40433;SDS011;26146;51.114;5.654;2023-04-24T17:53:56;8.17;;;2.00;;
40433;SDS011;26146;51.114;5.654;2023-04-24T17:57:57;8.07;;;2.33;;
40433;SDS011;26146;51.114;5.654;2023-04-24T18:01:58;7.53;;;1.63;;
40433;SDS011;26146;51.114;5.654;2023-04-24T18:05:59;7.03;;;1.70;;
40433;SDS011;26146;51.114;5.654;2023-04-24T18:10:01;7.57;;;2.27;;
40433;SDS011;26146;51.114;5.654;2023-04-24T18:14:02;7.40;;;2.10;;
40433;SDS011;26146;51.114;5.654;2023-04-24T18:18:03;7.63;;;2.23;;
40433;SDS011;26146;51.114;5.654;2023-04-24T18:22:05;7.57;;;1.90;;
40433;SDS011;26146;51.114;5.654;2023-04-24T18:26:06;9.80;;;2.40;;
40433;SDS011;26146;51.114;5.654;2023-04-24T18:30:07;8.07;;;2.20;;
40433;SDS011;26146;51.114;5.654;2023-04-24T18:34:10;9.40;;;2.30;;
40433;SDS011;26146;51.114;5.654;2023-04-24T18:38:11;9.33;;;2.30;;
40433;SDS011;26146;51.114;5.654;2023-04-24T18:42:12;9.87;;;2.30;;
40433;SDS011;26146;51.114;5.654;2023-04-24T18:46:13;12.40;;;2.60;;
40433;SDS011;26146;51.114;5.654;2023-04-24T18:50:14;10.77;;;2.33;;
40433;SDS011;26146;51.114;5.654;2023-04-24T18:54:16;10.30;;;2.47;;
40433;SDS011;26146;51.114;5.654;2023-04-24T18:58:17;12.00;;;2.50;;
40433;SDS011;26146;51.114;5.654;2023-04-24T19:02:18;11.17;;;2.60;;
40433;SDS011;26146;51.114;5.654;2023-04-24T19:06:19;13.03;;;2.70;;
40433;SDS011;26146;51.114;5.654;2023-04-24T19:10:20;10.67;;;2.60;;
40433;SDS011;26146;51.114;5.654;2023-04-24T19:14:21;9.53;;;2.43;;
40433;SDS011;26146;51.114;5.654;2023-04-24T19:18:23;10.00;;;2.73;;
40433;SDS011;26146;51.114;5.654;2023-04-24T19:22:25;10.23;;;2.60;;
40433;SDS011;26146;51.114;5.654;2023-04-24T19:26:28;8.70;;;2.63;;
40433;SDS011;26146;51.114;5.654;2023-04-24T19:30:30;10.63;;;2.20;;
40433;SDS011;26146;51.114;5.654;2023-04-24T19:34:31;9.20;;;2.17;;
40433;SDS011;26146;51.114;5.654;2023-04-24T19:38:34;12.40;;;2.90;;
40433;SDS011;26146;51.114;5.654;2023-04-24T19:42:35;10.37;;;3.33;;
40433;SDS011;26146;51.114;5.654;2023-04-24T19:46:36;11.03;;;2.80;;
40433;SDS011;26146;51.114;5.654;2023-04-24T19:50:39;9.13;;;2.60;;
40433;SDS011;26146;51.114;5.654;2023-04-24T19:54:40;11.67;;;2.40;;
40433;SDS011;26146;51.114;5.654;2023-04-24T19:58:41;10.13;;;2.73;;
40433;SDS011;26146;51.114;5.654;2023-04-24T20:02:42;11.37;;;2.37;;
40433;SDS011;26146;51.114;5.654;2023-04-24T20:06:43;11.80;;;2.53;;
40433;SDS011;26146;51.114;5.654;2023-04-24T20:10:44;13.70;;;2.90;;
40433;SDS011;26146;51.114;5.654;2023-04-24T20:14:48;9.67;;;2.40;;
40433;SDS011;26146;51.114;5.654;2023-04-24T20:18:49;10.53;;;2.53;;
40433;SDS011;26146;51.114;5.654;2023-04-24T20:22:50;10.33;;;2.80;;
40433;SDS011;26146;51.114;5.654;2023-04-24T20:26:51;9.50;;;2.83;;
40433;SDS011;26146;51.114;5.654;2023-04-24T20:30:52;12.90;;;2.93;;
40433;SDS011;26146;51.114;5.654;2023-04-24T20:34:54;9.90;;;2.90;;
40433;SDS011;26146;51.114;5.654;2023-04-24T20:38:55;9.87;;;3.00;;
40433;SDS011;26146;51.114;5.654;2023-04-24T20:42:56;12.77;;;3.00;;
40433;SDS011;26146;51.114;5.654;2023-04-24T20:46:57;10.63;;;3.07;;
40433;SDS011;26146;51.114;5.654;2023-04-24T20:50:59;12.30;;;3.00;;
40433;SDS011;26146;51.114;5.654;2023-04-24T20:55:00;12.57;;;3.17;;
40433;SDS011;26146;51.114;5.654;2023-04-24T20:59:01;13.93;;;3.43;;
40433;SDS011;26146;51.114;5.654;2023-04-24T21:03:02;14.97;;;3.20;;
40433;SDS011;26146;51.114;5.654;2023-04-24T21:07:04;11.87;;;3.00;;
40433;SDS011;26146;51.114;5.654;2023-04-24T21:11:05;13.17;;;3.37;;
40433;SDS011;26146;51.114;5.654;2023-04-24T21:15:06;11.87;;;3.00;;
40433;SDS011;26146;51.114;5.654;2023-04-24T21:19:08;14.90;;;2.97;;
40433;SDS011;26146;51.114;5.654;2023-04-24T21:23:09;12.87;;;3.00;;
40433;SDS011;26146;51.114;5.654;2023-04-24T21:27:10;12.97;;;3.23;;
40433;SDS011;26146;51.114;5.654;2023-04-24T21:31:11;11.03;;;3.13;;
40433;SDS011;26146;51.114;5.654;2023-04-24T21:35:12;12.93;;;3.00;;
40433;SDS011;26146;51.114;5.654;2023-04-24T21:39:13;13.17;;;3.40;;
40433;SDS011;26146;51.114;5.654;2023-04-24T21:43:14;12.77;;;3.00;;
40433;SDS011;26146;51.114;5.654;2023-04-24T21:47:15;13.50;;;3.33;;
40433;SDS011;26146;51.114;5.654;2023-04-24T21:51:16;16.07;;;3.33;;
40433;SDS011;26146;51.114;5.654;2023-04-24T21:55:19;13.60;;;3.30;;
40433;SDS011;26146;51.114;5.654;2023-04-24T21:59:20;14.37;;;3.53;;
40433;SDS011;26146;51.114;5.654;2023-04-24T22:03:21;14.07;;;3.60;;
40433;SDS011;26146;51.114;5.654;2023-04-24T22:07:23;13.43;;;3.37;;
40433;SDS011;26146;51.114;5.654;2023-04-24T22:11:24;13.83;;;4.07;;
40433;SDS011;26146;51.114;5.654;2023-04-24T22:15:26;13.77;;;3.70;;
40433;SDS011;26146;51.114;5.654;2023-04-24T22:19:27;13.33;;;3.60;;
40433;SDS011;26146;51.114;5.654;2023-04-24T22:23:28;13.83;;;3.63;;
40433;SDS011;26146;51.114;5.654;2023-04-24T22:27:29;12.77;;;3.80;;
40433;SDS011;26146;51.114;5.654;2023-04-24T22:31:31;13.63;;;3.87;;
40433;SDS011;26146;51.114;5.654;2023-04-24T22:35:32;14.37;;;3.57;;
40433;SDS011;26146;51.114;5.654;2023-04-24T22:39:35;14.20;;;3.40;;
40433;SDS011;26146;51.114;5.654;2023-04-24T22:43:36;13.07;;;4.07;;
40433;SDS011;26146;51.114;5.654;2023-04-24T22:47:41;16.27;;;4.23;;
40433;SDS011;26146;51.114;5.654;2023-04-24T22:51:42;15.40;;;3.80;;
40433;SDS011;26146;51.114;5.654;2023-04-24T22:55:43;15.43;;;4.20;;
40433;SDS011;26146;51.114;5.654;2023-04-24T22:59:44;13.37;;;4.27;;
40433;SDS011;26146;51.114;5.654;2023-04-24T23:03:45;13.30;;;3.93;;
40433;SDS011;26146;51.114;5.654;2023-04-24T23:07:46;14.60;;;3.77;;
40433;SDS011;26146;51.114;5.654;2023-04-24T23:11:47;13.93;;;3.73;;
40433;SDS011;26146;51.114;5.654;2023-04-24T23:15:48;12.23;;;3.67;;
40433;SDS011;26146;51.114;5.654;2023-04-24T23:19:49;12.47;;;3.90;;
40433;SDS011;26146;51.114;5.654;2023-04-24T23:23:50;13.83;;;4.07;;
40433;SDS011;26146;51.114;5.654;2023-04-24T23:27:52;12.13;;;4.20;;
40433;SDS011;26146;51.114;5.654;2023-04-24T23:31:53;16.10;;;4.13;;
40433;SDS011;26146;51.114;5.654;2023-04-24T23:35:54;13.77;;;3.63;;
40433;SDS011;26146;51.114;5.654;2023-04-24T23:39:55;14.93;;;4.07;;
40433;SDS011;26146;51.114;5.654;2023-04-24T23:43:56;16.53;;;4.10;;
40433;SDS011;26146;51.114;5.654;2023-04-24T23:47:57;16.33;;;4.23;;
40433;SDS011;26146;51.114;5.654;2023-04-24T23:51:58;16.60;;;3.87;;
40433;SDS011;26146;51.114;5.654;2023-04-24T23:55:59;14.37;;;3.60;;
